sensor_id;sensor_type;location;lat;lon;timestamp;pressure;altitude;pressure_sealevel;temperature;humidity
39555;BME280;25231;48.746;9.234;2022-10-22T00:00:22;96546.34;;;12.60;100.00
39555;BME280;25231;48.746;9.234;2022-10-22T00:02:47;96547.59;;;12.53;100.00
39555;BME280;25231;48.746;9.234;2022-10-22T00:05:13;96552.00;;;12.47;100.00
39555;BME280;25231;48.746;9.234;2022-10-22T00:07:38;96547.47;;;12.42;100.00
39555;BME280;25231;48.746;9.234;2022-10-22T00:10:05;96540.31;;;12.38;100.00
39555;BME280;25231;48.746;9.234;2022-10-22T00:12:31;96528.50;;;12.40;100.00
39555;BME280;25231;48.746;9.234;2022-10-22T00:14:56;96530.06;;;12.36;100.00
39555;BME280;25231;48.746;9.234;2022-10-22T00:17:21;96528.75;;;12.39;100.00
39555;BME280;25231;48.746;9.234;2022-10-22T00:19:47;96538.47;;;12.38;100.00
39555;BME280;25231;48.746;9.234;2022-10-22T00:22:12;96533.22;;;12.38;100.00
39555;BME280;25231;48.746;9.234;2022-10-22T00:24:38;96532.69;;;12.36;100.00
39555;BME280;25231;48.746;9.234;2022-10-22T00:27:05;96528.97;;;12.37;100.00
39555;BME280;25231;48.746;9.234;2022-10-22T00:29:31;96517.38;;;12.33;100.00
39555;BME280;25231;48.746;9.234;2022-10-22T00:31:56;96523.94;;;12.31;100.00
39555;BME280;25231;48.746;9.234;2022-10-22T00:34:22;96529.56;;;12.39;100.00
39555;BME280;25231;48.746;9.234;2022-10-22T00:36:49;96531.31;;;12.34;100.00
39555;BME280;25231;48.746;9.234;2022-10-22T00:39:16;96529.50;;;12.34;100.00
39555;BME280;25231;48.746;9.234;2022-10-22T00:41:43;96529.44;;;12.29;100.00
39555;BME280;25231;48.746;9.234;2022-10-22T00:47:13;96525.50;;;12.32;100.00
39555;BME280;25231;48.746;9.234;2022-10-22T00:49:39;96526.84;;;12.34;100.00
39555;BME280;25231;48.746;9.234;2022-10-22T00:52:05;96529.13;;;12.26;100.00
39555;BME280;25231;48.746;9.234;2022-10-22T00:54:30;96526.63;;;12.36;100.00
39555;BME280;25231;48.746;9.234;2022-10-22T00:56:56;96523.44;;;12.34;100.00
39555;BME280;25231;48.746;9.234;2022-10-22T00:59:21;96525.03;;;12.35;100.00
39555;BME280;25231;48.746;9.234;2022-10-22T01:01:47;96518.13;;;12.29;100.00
39555;BME280;25231;48.746;9.234;2022-10-22T01:04:14;96518.84;;;12.24;100.00
39555;BME280;25231;48.746;9.234;2022-10-22T01:06:40;96523.06;;;12.25;100.00
39555;BME280;25231;48.746;9.234;2022-10-22T01:12:06;96516.53;;;12.28;100.00
39555;BME280;25231;48.746;9.234;2022-10-22T01:15:07;96525.03;;;12.35;100.00
39555;BME280;25231;48.746;9.234;2022-10-22T01:26:47;96517.13;;;12.13;100.00
39555;BME280;25231;48.746;9.234;2022-10-22T01:29:21;96506.06;;;12.11;100.00
39555;BME280;25231;48.746;9.234;2022-10-22T01:31:55;96504.13;;;12.23;100.00
39555;BME280;25231;48.746;9.234;2022-10-22T01:34:23;96490.97;;;12.23;100.00
39555;BME280;25231;48.746;9.234;2022-10-22T01:36:50;96497.81;;;12.24;100.00
39555;BME280;25231;48.746;9.234;2022-10-22T01:39:18;96490.69;;;12.20;100.00
39555;BME280;25231;48.746;9.234;2022-10-22T01:41:44;96497.78;;;12.19;100.00
39555;BME280;25231;48.746;9.234;2022-10-22T01:44:30;96491.47;;;12.20;100.00
39555;BME280;25231;48.746;9.234;2022-10-22T01:52:50;96493.03;;;12.21;100.00
39555;BME280;25231;48.746;9.234;2022-10-22T01:55:29;96491.72;;;12.19;100.00
39555;BME280;25231;48.746;9.234;2022-10-22T02:00:37;96498.81;;;12.18;100.00
39555;BME280;25231;48.746;9.234;2022-10-22T02:03:12;96496.16;;;12.18;100.00
39555;BME280;25231;48.746;9.234;2022-10-22T02:05:46;96487.78;;;12.21;100.00
39555;BME280;25231;48.746;9.234;2022-10-22T02:08:19;96496.47;;;12.22;100.00
39555;BME280;25231;48.746;9.234;2022-10-22T02:10:47;96513.34;;;12.26;100.00
39555;BME280;25231;48.746;9.234;2022-10-22T02:13:21;96519.09;;;12.23;100.00
39555;BME280;25231;48.746;9.234;2022-10-22T02:15:49;96520.84;;;12.17;100.00
39555;BME280;25231;48.746;9.234;2022-10-22T02:18:18;96527.47;;;12.20;100.00
39555;BME280;25231;48.746;9.234;2022-10-22T02:20:44;96517.25;;;12.23;100.00
39555;BME280;25231;48.746;9.234;2022-10-22T02:23:10;96519.25;;;12.16;100.00
39555;BME280;25231;48.746;9.234;2022-10-22T02:25:38;96525.38;;;12.22;100.00
39555;BME280;25231;48.746;9.234;2022-10-22T02:28:11;96538.78;;;12.20;100.00
39555;BME280;25231;48.746;9.234;2022-10-22T02:30:40;96535.34;;;12.20;100.00
39555;BME280;25231;48.746;9.234;2022-10-22T02:33:19;96515.38;;;12.19;100.00
39555;BME280;25231;48.746;9.234;2022-10-22T02:35:47;96520.13;;;12.22;100.00
39555;BME280;25231;48.746;9.234;2022-10-22T02:38:14;96521.09;;;12.16;100.00
39555;BME280;25231;48.746;9.234;2022-10-22T02:40:40;96524.03;;;12.19;100.00
39555;BME280;25231;48.746;9.234;2022-10-22T02:43:06;96523.28;;;12.02;100.00
39555;BME280;25231;48.746;9.234;2022-10-22T02:45:31;96518.31;;;12.05;100.00
39555;BME280;25231;48.746;9.234;2022-10-22T02:47:58;96520.41;;;12.03;100.00
39555;BME280;25231;48.746;9.234;2022-10-22T02:50:23;96527.81;;;12.06;100.00
39555;BME280;25231;48.746;9.234;2022-10-22T02:52:48;96517.78;;;12.03;100.00
39555;BME280;25231;48.746;9.234;2022-10-22T02:55:14;96519.13;;;12.06;100.00
39555;BME280;25231;48.746;9.234;2022-10-22T02:57:39;96515.94;;;12.04;100.00
39555;BME280;25231;48.746;9.234;2022-10-22T03:00:07;96517.78;;;12.03;100.00
39555;BME280;25231;48.746;9.234;2022-10-22T03:02:33;96524.38;;;12.06;100.00
39555;BME280;25231;48.746;9.234;2022-10-22T03:04:58;96519.91;;;12.06;100.00
39555;BME280;25231;48.746;9.234;2022-10-22T03:07:24;96516.03;;;12.09;100.00
39555;BME280;25231;48.746;9.234;2022-10-22T03:09:49;96516.34;;;12.13;100.00
39555;BME280;25231;48.746;9.234;2022-10-22T03:12:15;96510.28;;;12.12;100.00
39555;BME280;25231;48.746;9.234;2022-10-22T03:14:40;96511.53;;;12.09;100.00
39555;BME280;25231;48.746;9.234;2022-10-22T03:17:06;96507.47;;;12.19;100.00
39555;BME280;25231;48.746;9.234;2022-10-22T03:19:31;96499.53;;;12.14;100.00
39555;BME280;25231;48.746;9.234;2022-10-22T03:22:02;96505.59;;;12.14;100.00
39555;BME280;25231;48.746;9.234;2022-10-22T03:24:34;96509.78;;;12.15;100.00
39555;BME280;25231;48.746;9.234;2022-10-22T03:27:00;96507.41;;;12.14;100.00
39555;BME280;25231;48.746;9.234;2022-10-22T03:29:26;96495.88;;;12.15;100.00
39555;BME280;25231;48.746;9.234;2022-10-22T03:31:53;96490.28;;;12.11;100.00
39555;BME280;25231;48.746;9.234;2022-10-22T03:34:18;96485.38;;;12.15;100.00
39555;BME280;25231;48.746;9.234;2022-10-22T03:36:44;96479.59;;;12.18;100.00
39555;BME280;25231;48.746;9.234;2022-10-22T03:39:12;96483.44;;;12.10;100.00
39555;BME280;25231;48.746;9.234;2022-10-22T03:41:39;96476.41;;;12.16;100.00
39555;BME280;25231;48.746;9.234;2022-10-22T03:44:05;96478.25;;;12.15;100.00
39555;BME280;25231;48.746;9.234;2022-10-22T03:46:31;96487.25;;;12.19;100.00
39555;BME280;25231;48.746;9.234;2022-10-22T03:48:56;96499.84;;;12.17;100.00
39555;BME280;25231;48.746;9.234;2022-10-22T03:51:21;96499.53;;;12.14;100.00
39555;BME280;25231;48.746;9.234;2022-10-22T03:53:47;96500.06;;;12.16;100.00
39555;BME280;25231;48.746;9.234;2022-10-22T03:56:12;96506.56;;;12.08;100.00
39555;BME280;25231;48.746;9.234;2022-10-22T03:58:39;96516.50;;;12.06;100.00
39555;BME280;25231;48.746;9.234;2022-10-22T04:01:07;96506.00;;;12.06;100.00
39555;BME280;25231;48.746;9.234;2022-10-22T04:03:33;96506.16;;;11.99;100.00
39555;BME280;25231;48.746;9.234;2022-10-22T04:06:04;96504.31;;;12.00;100.00
39555;BME280;25231;48.746;9.234;2022-10-22T04:08:30;96506.16;;;11.99;100.00
39555;BME280;25231;48.746;9.234;2022-10-22T04:10:55;96501.63;;;11.95;100.00
39555;BME280;25231;48.746;9.234;2022-10-22T04:13:21;96494.06;;;11.98;100.00
39555;BME280;25231;48.746;9.234;2022-10-22T04:15:46;96496.28;;;12.06;100.00
39555;BME280;25231;48.746;9.234;2022-10-22T04:18:11;96501.16;;;11.98;100.00
39555;BME280;25231;48.746;9.234;2022-10-22T04:20:37;96516.13;;;11.97;100.00
39555;BME280;25231;48.746;9.234;2022-10-22T04:23:02;96530.75;;;11.93;100.00
39555;BME280;25231;48.746;9.234;2022-10-22T04:25:28;96529.50;;;11.96;100.00
39555;BME280;25231;48.746;9.234;2022-10-22T04:27:53;96519.78;;;11.96;100.00
39555;BME280;25231;48.746;9.234;2022-10-22T04:30:19;96518.44;;;11.94;100.00
39555;BME280;25231;48.746;9.234;2022-10-22T04:32:44;96520.34;;;11.82;100.00
39555;BME280;25231;48.746;9.234;2022-10-22T04:35:09;96512.47;;;11.82;100.00
39555;BME280;25231;48.746;9.234;2022-10-22T04:37:35;96513.84;;;11.84;100.00
39555;BME280;25231;48.746;9.234;2022-10-22T04:40:00;96514.06;;;11.83;100.00
39555;BME280;25231;48.746;9.234;2022-10-22T04:42:25;96506.25;;;11.88;100.00
39555;BME280;25231;48.746;9.234;2022-10-22T04:44:51;96507.56;;;11.85;100.00
39555;BME280;25231;48.746;9.234;2022-10-22T04:47:16;96514.06;;;11.83;100.00
39555;BME280;25231;48.746;9.234;2022-10-22T04:49:42;96501.56;;;11.90;100.00
39555;BME280;25231;48.746;9.234;2022-10-22T04:52:07;96513.66;;;11.91;100.00
39555;BME280;25231;48.746;9.234;2022-10-22T04:54:32;96517.88;;;11.92;100.00
39555;BME280;25231;48.746;9.234;2022-10-22T04:56:58;96521.38;;;11.97;100.00
39555;BME280;25231;48.746;9.234;2022-10-22T04:59:23;96529.25;;;11.97;100.00
39555;BME280;25231;48.746;9.234;2022-10-22T05:01:49;96531.63;;;11.99;100.00
39555;BME280;25231;48.746;9.234;2022-10-22T05:04:16;96542.19;;;12.04;100.00
39555;BME280;25231;48.746;9.234;2022-10-22T05:06:42;96542.94;;;11.99;100.00
39555;BME280;25231;48.746;9.234;2022-10-22T05:09:14;96544.53;;;12.00;100.00
39555;BME280;25231;48.746;9.234;2022-10-22T05:11:41;96549.84;;;12.05;100.00
39555;BME280;25231;48.746;9.234;2022-10-22T05:14:10;96548.97;;;12.00;100.00
39555;BME280;25231;48.746;9.234;2022-10-22T05:16:37;96533.22;;;12.00;100.00
39555;BME280;25231;48.746;9.234;2022-10-22T05:19:03;96541.75;;;12.07;100.00
39555;BME280;25231;48.746;9.234;2022-10-22T05:21:29;96535.63;;;12.01;100.00
39555;BME280;25231;48.746;9.234;2022-10-22T05:23:55;96536.19;;;12.03;100.00
39555;BME280;25231;48.746;9.234;2022-10-22T05:26:21;96539.41;;;12.11;100.00
39555;BME280;25231;48.746;9.234;2022-10-22T05:28:48;96549.13;;;12.10;100.00
39555;BME280;25231;48.746;9.234;2022-10-22T05:31:15;96558.84;;;12.09;100.00
39555;BME280;25231;48.746;9.234;2022-10-22T05:33:41;96568.25;;;12.05;100.00
39555;BME280;25231;48.746;9.234;2022-10-22T05:36:08;96565.63;;;12.05;100.00
39555;BME280;25231;48.746;9.234;2022-10-22T05:38:34;96578.22;;;12.03;100.00
39555;BME280;25231;48.746;9.234;2022-10-22T05:41:03;96587.03;;;11.97;100.00
39555;BME280;25231;48.746;9.234;2022-10-22T05:43:29;96592.31;;;11.97;100.00
39555;BME280;25231;48.746;9.234;2022-10-22T05:45:54;96612.97;;;11.94;100.00
39555;BME280;25231;48.746;9.234;2022-10-22T05:48:20;96622.16;;;12.08;100.00
39555;BME280;25231;48.746;9.234;2022-10-22T05:50:45;96632.97;;;12.12;100.00
39555;BME280;25231;48.746;9.234;2022-10-22T05:53:17;96629.53;;;12.11;100.00
39555;BME280;25231;48.746;9.234;2022-10-22T05:55:43;96646.16;;;12.17;100.00
39555;BME280;25231;48.746;9.234;2022-10-22T05:58:12;96639.66;;;12.19;100.00
39555;BME280;25231;48.746;9.234;2022-10-22T06:00:38;96638.28;;;12.17;100.00
39555;BME280;25231;48.746;9.234;2022-10-22T06:03:04;96643.00;;;12.15;100.00
39555;BME280;25231;48.746;9.234;2022-10-22T06:05:29;96646.75;;;12.19;100.00
39555;BME280;25231;48.746;9.234;2022-10-22T06:07:56;96651.03;;;12.25;100.00
39555;BME280;25231;48.746;9.234;2022-10-22T06:10:22;96653.75;;;12.30;100.00
39555;BME280;25231;48.746;9.234;2022-10-22T06:12:48;96653.50;;;12.31;100.00
39555;BME280;25231;48.746;9.234;2022-10-22T06:15:16;96659.38;;;12.38;100.00
39555;BME280;25231;48.746;9.234;2022-10-22T06:17:45;96661.84;;;12.28;100.00
39555;BME280;25231;48.746;9.234;2022-10-22T06:20:11;96664.03;;;12.31;100.00
39555;BME280;25231;48.746;9.234;2022-10-22T06:22:37;96670.53;;;12.45;100.00
39555;BME280;25231;48.746;9.234;2022-10-22T06:25:03;96672.59;;;12.43;100.00
39555;BME280;25231;48.746;9.234;2022-10-22T06:27:29;96677.84;;;12.43;100.00
39555;BME280;25231;48.746;9.234;2022-10-22T06:29:55;96685.81;;;12.48;100.00
39555;BME280;25231;48.746;9.234;2022-10-22T06:32:20;96681.75;;;12.41;100.00
39555;BME280;25231;48.746;9.234;2022-10-22T06:34:46;96688.75;;;12.52;100.00
39555;BME280;25231;48.746;9.234;2022-10-22T06:37:12;96692.19;;;12.53;100.00
39555;BME280;25231;48.746;9.234;2022-10-22T06:39:39;96693.16;;;12.46;100.00
39555;BME280;25231;48.746;9.234;2022-10-22T06:42:05;96699.28;;;12.52;100.00
39555;BME280;25231;48.746;9.234;2022-10-22T06:44:31;96699.13;;;12.42;100.00
39555;BME280;25231;48.746;9.234;2022-10-22T06:46:56;96695.63;;;12.53;100.00
39555;BME280;25231;48.746;9.234;2022-10-22T06:49:21;96703.31;;;12.60;100.00
39555;BME280;25231;48.746;9.234;2022-10-22T06:51:51;96703.25;;;12.55;100.00
39555;BME280;25231;48.746;9.234;2022-10-22T06:54:17;96705.25;;;12.64;100.00
39555;BME280;25231;48.746;9.234;2022-10-22T06:56:43;96714.97;;;12.64;100.00
39555;BME280;25231;48.746;9.234;2022-10-22T06:59:08;96717.81;;;12.62;100.00
39555;BME280;25231;48.746;9.234;2022-10-22T07:01:35;96715.44;;;12.61;100.00
39555;BME280;25231;48.746;9.234;2022-10-22T07:04:01;96719.00;;;12.71;100.00
39555;BME280;25231;48.746;9.234;2022-10-22T07:06:27;96730.22;;;12.83;100.00
39555;BME280;25231;48.746;9.234;2022-10-22T07:08:57;96726.06;;;12.87;100.00
39555;BME280;25231;48.746;9.234;2022-10-22T07:11:28;96734.91;;;12.98;100.00
39555;BME280;25231;48.746;9.234;2022-10-22T07:13:56;96737.75;;;12.75;100.00
39555;BME280;25231;48.746;9.234;2022-10-22T07:16:22;96738.13;;;12.83;100.00
39555;BME280;25231;48.746;9.234;2022-10-22T07:18:48;96746.34;;;12.87;100.00
39555;BME280;25231;48.746;9.234;2022-10-22T07:21:16;96749.19;;;13.02;100.00
39555;BME280;25231;48.746;9.234;2022-10-22T07:23:42;96749.53;;;13.11;100.00
39555;BME280;25231;48.746;9.234;2022-10-22T07:26:10;96751.88;;;13.07;100.00
39555;BME280;25231;48.746;9.234;2022-10-22T07:28:37;96756.72;;;13.15;100.00
39555;BME280;25231;48.746;9.234;2022-10-22T07:31:05;96752.03;;;13.17;100.00
39555;BME280;25231;48.746;9.234;2022-10-22T07:33:30;96755.59;;;13.11;100.00
39555;BME280;25231;48.746;9.234;2022-10-22T07:36:04;96763.19;;;13.08;100.00
39555;BME280;25231;48.746;9.234;2022-10-22T07:38:30;96767.66;;;13.07;100.00
39555;BME280;25231;48.746;9.234;2022-10-22T07:40:56;96759.28;;;13.10;100.00
39555;BME280;25231;48.746;9.234;2022-10-22T07:43:21;96758.91;;;13.18;100.00
39555;BME280;25231;48.746;9.234;2022-10-22T07:45:47;96759.75;;;13.24;100.00
39555;BME280;25231;48.746;9.234;2022-10-22T07:48:13;96771.63;;;13.26;100.00
39555;BME280;25231;48.746;9.234;2022-10-22T07:50:38;96773.78;;;13.29;100.00
39555;BME280;25231;48.746;9.234;2022-10-22T07:53:04;96777.56;;;13.39;100.00
39555;BME280;25231;48.746;9.234;2022-10-22T07:55:29;96782.72;;;13.28;100.00
39555;BME280;25231;48.746;9.234;2022-10-22T07:57:55;96777.34;;;13.40;100.00
39555;BME280;25231;48.746;9.234;2022-10-22T08:00:21;96779.00;;;13.46;100.00
39555;BME280;25231;48.746;9.234;2022-10-22T08:02:46;96786.38;;;13.71;100.00
39555;BME280;25231;48.746;9.234;2022-10-22T08:05:12;96781.63;;;13.68;100.00
39555;BME280;25231;48.746;9.234;2022-10-22T08:07:38;96787.50;;;13.75;100.00
39555;BME280;25231;48.746;9.234;2022-10-22T08:10:04;96791.06;;;13.86;100.00
39555;BME280;25231;48.746;9.234;2022-10-22T08:12:30;96793.53;;;13.70;100.00
39555;BME280;25231;48.746;9.234;2022-10-22T08:14:55;96792.09;;;13.85;100.00
39555;BME280;25231;48.746;9.234;2022-10-22T08:17:20;96795.38;;;13.97;100.00
39555;BME280;25231;48.746;9.234;2022-10-22T08:19:46;96800.53;;;14.08;100.00
39555;BME280;25231;48.746;9.234;2022-10-22T08:22:11;96800.72;;;14.29;100.00
39555;BME280;25231;48.746;9.234;2022-10-22T08:24:37;96802.69;;;14.38;100.00
39555;BME280;25231;48.746;9.234;2022-10-22T08:27:02;96802.44;;;14.40;100.00
39555;BME280;25231;48.746;9.234;2022-10-22T08:29:28;96794.19;;;14.36;100.00
39555;BME280;25231;48.746;9.234;2022-10-22T08:31:53;96795.44;;;14.29;100.00
39555;BME280;25231;48.746;9.234;2022-10-22T08:34:19;96787.47;;;13.97;100.00
39555;BME280;25231;48.746;9.234;2022-10-22T08:36:44;96789.88;;;13.98;100.00
39555;BME280;25231;48.746;9.234;2022-10-22T08:39:10;96791.59;;;13.88;100.00
39555;BME280;25231;48.746;9.234;2022-10-22T08:47:53;96788.47;;;13.91;100.00
39555;BME280;25231;48.746;9.234;2022-10-22T08:50:33;96788.19;;;14.14;100.00
39555;BME280;25231;48.746;9.234;2022-10-22T08:53:02;96790.38;;;14.22;100.00
39555;BME280;25231;48.746;9.234;2022-10-22T08:55:29;96794.81;;;14.43;100.00
39555;BME280;25231;48.746;9.234;2022-10-22T09:01:04;96805.88;;;14.72;100.00
39555;BME280;25231;48.746;9.234;2022-10-22T09:06:39;96806.97;;;14.76;100.00
39555;BME280;25231;48.746;9.234;2022-10-22T09:09:11;96809.09;;;14.79;100.00
39555;BME280;25231;48.746;9.234;2022-10-22T09:11:42;96805.78;;;14.94;100.00
39555;BME280;25231;48.746;9.234;2022-10-22T09:14:13;96820.38;;;15.49;100.00
39555;BME280;25231;48.746;9.234;2022-10-22T09:20:03;96821.69;;;15.98;100.00
39555;BME280;25231;48.746;9.234;2022-10-22T09:22:49;96826.16;;;15.98;100.00
39555;BME280;25231;48.746;9.234;2022-10-22T09:25:22;96831.22;;;16.04;100.00
39555;BME280;25231;48.746;9.234;2022-10-22T09:27:48;96823.47;;;15.83;100.00
39555;BME280;25231;48.746;9.234;2022-10-22T09:30:22;96832.22;;;15.88;100.00
39555;BME280;25231;48.746;9.234;2022-10-22T09:33:14;96826.69;;;16.00;100.00
39555;BME280;25231;48.746;9.234;2022-10-22T09:38:18;96833.53;;;15.86;100.00
39555;BME280;25231;48.746;9.234;2022-10-22T09:40:50;96827.75;;;15.94;100.00
39555;BME280;25231;48.746;9.234;2022-10-22T09:43:17;96840.44;;;15.97;100.00
39555;BME280;25231;48.746;9.234;2022-10-22T09:45:44;96828.06;;;16.12;100.00
39555;BME280;25231;48.746;9.234;2022-10-22T09:48:33;96842.88;;;16.18;100.00
39555;BME280;25231;48.746;9.234;2022-10-22T09:51:10;96846.31;;;16.09;100.00
39555;BME280;25231;48.746;9.234;2022-10-22T09:53:43;96842.66;;;16.25;100.00
39555;BME280;25231;48.746;9.234;2022-10-22T09:56:20;96843.44;;;16.31;100.00
39555;BME280;25231;48.746;9.234;2022-10-22T09:58:48;96846.91;;;16.41;100.00
39555;BME280;25231;48.746;9.234;2022-10-22T10:01:24;96853.25;;;16.40;100.00
39555;BME280;25231;48.746;9.234;2022-10-22T10:03:50;96855.09;;;16.45;100.00
39555;BME280;25231;48.746;9.234;2022-10-22T10:06:20;96854.31;;;16.39;100.00
39555;BME280;25231;48.746;9.234;2022-10-22T10:08:47;96854.06;;;16.51;100.00
39555;BME280;25231;48.746;9.234;2022-10-22T10:16:56;96863.13;;;16.70;100.00
39555;BME280;25231;48.746;9.234;2022-10-22T10:19:40;96864.47;;;16.83;100.00
39555;BME280;25231;48.746;9.234;2022-10-22T10:27:55;96867.13;;;17.03;100.00
39555;BME280;25231;48.746;9.234;2022-10-22T10:30:23;96867.13;;;17.08;100.00
39555;BME280;25231;48.746;9.234;2022-10-22T10:33:02;96874.78;;;17.15;100.00
39555;BME280;25231;48.746;9.234;2022-10-22T10:41:15;96884.34;;;17.11;100.00
39555;BME280;25231;48.746;9.234;2022-10-22T10:46:49;96879.81;;;17.36;100.00
39555;BME280;25231;48.746;9.234;2022-10-22T10:49:23;96879.28;;;17.34;100.00
39555;BME280;25231;48.746;9.234;2022-10-22T10:54:50;96885.84;;;17.82;96.22
39555;BME280;25231;48.746;9.234;2022-10-22T11:00:14;96883.94;;;17.98;95.80
39555;BME280;25231;48.746;9.234;2022-10-22T11:03:01;96886.38;;;17.79;91.00
39555;BME280;25231;48.746;9.234;2022-10-22T11:05:46;96886.59;;;17.93;88.59
39555;BME280;25231;48.746;9.234;2022-10-22T11:08:30;96884.75;;;17.83;88.48
39555;BME280;25231;48.746;9.234;2022-10-22T11:11:17;96885.88;;;17.77;87.52
39555;BME280;25231;48.746;9.234;2022-10-22T11:14:02;96886.03;;;18.01;87.69
39555;BME280;25231;48.746;9.234;2022-10-22T11:16:42;96883.16;;;17.93;87.91
39555;BME280;25231;48.746;9.234;2022-10-22T11:19:18;96891.63;;;18.00;87.48
39555;BME280;25231;48.746;9.234;2022-10-22T11:24:22;96877.06;;;17.87;85.15
39555;BME280;25231;48.746;9.234;2022-10-22T11:29:56;96883.41;;;17.91;82.30
39555;BME280;25231;48.746;9.234;2022-10-22T11:32:25;96875.41;;;18.01;77.41
39555;BME280;25231;48.746;9.234;2022-10-22T11:35:02;96876.78;;;17.99;80.11
39555;BME280;25231;48.746;9.234;2022-10-22T11:37:31;96878.59;;;18.08;80.88
39555;BME280;25231;48.746;9.234;2022-10-22T11:40:20;96874.75;;;18.29;78.97
39555;BME280;25231;48.746;9.234;2022-10-22T11:43:03;96873.47;;;18.27;80.61
39555;BME280;25231;48.746;9.234;2022-10-22T11:45:34;96873.13;;;18.44;77.96
39555;BME280;25231;48.746;9.234;2022-10-22T11:48:15;96874.94;;;18.48;74.33
39555;BME280;25231;48.746;9.234;2022-10-22T11:50:47;96862.66;;;18.62;72.00
39555;BME280;25231;48.746;9.234;2022-10-22T11:55:52;96863.00;;;18.46;72.92
39555;BME280;25231;48.746;9.234;2022-10-22T11:58:39;96863.22;;;18.59;74.59
39555;BME280;25231;48.746;9.234;2022-10-22T12:16:43;96861.03;;;19.87;66.47
39555;BME280;25231;48.746;9.234;2022-10-22T12:21:37;96863.38;;;19.70;65.62
39555;BME280;25231;48.746;9.234;2022-10-22T12:24:04;96863.19;;;19.85;63.72
39555;BME280;25231;48.746;9.234;2022-10-22T12:26:31;96857.06;;;20.08;62.88
39555;BME280;25231;48.746;9.234;2022-10-22T12:29:08;96858.97;;;20.26;63.30
39555;BME280;25231;48.746;9.234;2022-10-22T12:31:36;96855.19;;;20.51;62.35
39555;BME280;25231;48.746;9.234;2022-10-22T12:34:03;96861.75;;;20.59;61.48
39555;BME280;25231;48.746;9.234;2022-10-22T12:36:32;96862.91;;;20.71;61.00
39555;BME280;25231;48.746;9.234;2022-10-22T12:39:12;96860.16;;;20.58;61.73
39555;BME280;25231;48.746;9.234;2022-10-22T12:41:38;96849.13;;;20.27;62.56
39555;BME280;25231;48.746;9.234;2022-10-22T12:44:04;96841.91;;;19.85;61.91
39555;BME280;25231;48.746;9.234;2022-10-22T12:46:32;96842.88;;;19.46;63.67
39555;BME280;25231;48.746;9.234;2022-10-22T12:49:01;96844.44;;;19.47;64.37
39555;BME280;25231;48.746;9.234;2022-10-22T12:51:27;96848.19;;;19.46;64.10
39555;BME280;25231;48.746;9.234;2022-10-22T12:53:55;96850.72;;;19.57;65.01
39555;BME280;25231;48.746;9.234;2022-10-22T12:56:24;96847.13;;;19.42;66.38
39555;BME280;25231;48.746;9.234;2022-10-22T12:58:57;96850.00;;;19.51;66.09
39555;BME280;25231;48.746;9.234;2022-10-22T13:01:26;96850.38;;;19.34;66.49
39555;BME280;25231;48.746;9.234;2022-10-22T13:06:42;96841.53;;;19.44;64.77
39555;BME280;25231;48.746;9.234;2022-10-22T13:11:41;96845.78;;;19.16;63.42
39555;BME280;25231;48.746;9.234;2022-10-22T13:14:38;96841.28;;;19.11;64.30
39555;BME280;25231;48.746;9.234;2022-10-22T13:25:19;96833.38;;;19.35;66.38
39555;BME280;25231;48.746;9.234;2022-10-22T13:27:54;96836.41;;;19.24;65.27
39555;BME280;25231;48.746;9.234;2022-10-22T13:30:26;96836.09;;;19.30;65.56
39555;BME280;25231;48.746;9.234;2022-10-22T13:32:56;96833.31;;;19.17;66.51
39555;BME280;25231;48.746;9.234;2022-10-22T13:35:29;96833.75;;;19.24;65.92
39555;BME280;25231;48.746;9.234;2022-10-22T13:37:56;96832.63;;;19.30;65.80
39555;BME280;25231;48.746;9.234;2022-10-22T13:40:22;96826.03;;;19.27;65.47
39555;BME280;25231;48.746;9.234;2022-10-22T13:42:47;96833.16;;;19.32;65.76
39555;BME280;25231;48.746;9.234;2022-10-22T13:45:13;96840.19;;;19.46;65.57
39555;BME280;25231;48.746;9.234;2022-10-22T13:47:39;96835.59;;;19.23;65.64
39555;BME280;25231;48.746;9.234;2022-10-22T13:50:14;96836.41;;;19.24;66.08
39555;BME280;25231;48.746;9.234;2022-10-22T13:52:43;96838.53;;;19.27;66.01
39555;BME280;25231;48.746;9.234;2022-10-22T13:57:41;96836.03;;;19.35;65.54
39555;BME280;25231;48.746;9.234;2022-10-22T14:00:12;96835.69;;;19.42;65.40
39555;BME280;25231;48.746;9.234;2022-10-22T14:02:39;96829.97;;;19.59;65.05
39555;BME280;25231;48.746;9.234;2022-10-22T14:05:05;96835.56;;;19.28;66.06
39555;BME280;25231;48.746;9.234;2022-10-22T14:07:37;96831.84;;;19.29;66.10
39555;BME280;25231;48.746;9.234;2022-10-22T14:10:18;96829.50;;;19.23;65.24
39555;BME280;25231;48.746;9.234;2022-10-22T14:12:44;96835.28;;;19.01;65.90
39555;BME280;25231;48.746;9.234;2022-10-22T14:15:12;96835.81;;;19.03;65.85
39555;BME280;25231;48.746;9.234;2022-10-22T14:17:38;96835.38;;;18.91;66.63
39555;BME280;25231;48.746;9.234;2022-10-22T14:20:04;96832.53;;;18.82;67.01
39555;BME280;25231;48.746;9.234;2022-10-22T14:22:30;96834.47;;;18.72;67.73
39555;BME280;25231;48.746;9.234;2022-10-22T14:24:55;96830.44;;;18.74;67.27
39555;BME280;25231;48.746;9.234;2022-10-22T14:27:21;96832.56;;;18.77;67.43
39555;BME280;25231;48.746;9.234;2022-10-22T14:29:46;96833.09;;;18.74;68.45
39555;BME280;25231;48.746;9.234;2022-10-22T14:32:14;96833.06;;;18.79;68.56
39555;BME280;25231;48.746;9.234;2022-10-22T14:34:40;96828.31;;;18.76;68.20
39555;BME280;25231;48.746;9.234;2022-10-22T14:37:14;96832.66;;;18.62;68.53
39555;BME280;25231;48.746;9.234;2022-10-22T14:39:41;96830.78;;;18.62;68.59
39555;BME280;25231;48.746;9.234;2022-10-22T14:42:09;96843.50;;;18.71;68.61
39555;BME280;25231;48.746;9.234;2022-10-22T14:44:35;96837.44;;;18.65;69.10
39555;BME280;25231;48.746;9.234;2022-10-22T14:47:01;96843.63;;;18.55;69.94
39555;BME280;25231;48.746;9.234;2022-10-22T14:49:26;96838.81;;;18.52;69.28